createdAt,value
2022-09-28T00:04:12.383Z,1.08
2022-09-28T00:09:04.357Z,0.70
2022-09-28T00:14:02.487Z,0.38
2022-09-28T00:24:05.152Z,0.52
2022-09-28T00:28:59.237Z,0.30
2022-09-28T00:33:52.198Z,0.30
2022-09-28T00:38:43.858Z,0.20
2022-09-28T00:43:35.433Z,0.28
2022-09-28T00:48:29.329Z,0.20
2022-09-28T00:53:28.121Z,0.20
2022-09-28T00:58:30.337Z,0.10
2022-09-28T01:03:22.130Z,0.10
2022-09-28T01:08:14.649Z,0.20
2022-09-28T01:13:06.521Z,0.20
2022-09-28T01:18:11.801Z,0.10
2022-09-28T01:23:15.330Z,0.20
2022-09-28T01:28:14.356Z,0.20
2022-09-28T01:33:11.966Z,0.20
2022-09-28T01:38:11.981Z,0.20
2022-09-28T01:43:10.933Z,0.20
2022-09-28T01:48:07.121Z,0.20
2022-09-28T01:53:12.675Z,0.30
2022-09-28T01:58:24.949Z,0.35
2022-09-28T02:03:24.093Z,0.30
2022-09-28T02:08:21.589Z,0.40
2022-09-28T02:13:29.967Z,0.63
2022-09-28T02:18:21.630Z,0.40
2022-09-28T02:23:14.086Z,0.50
2022-09-28T02:28:15.635Z,0.40
2022-09-28T02:33:21.190Z,0.50
2022-09-28T02:38:14.360Z,0.40
2022-09-28T02:43:12.446Z,0.40
2022-09-28T02:48:43.217Z,0.32
2022-09-28T02:53:57.695Z,0.30
2022-09-28T02:58:59.549Z,0.10
2022-09-28T03:04:01.677Z,0.43
2022-09-28T03:09:00.942Z,0.20
2022-09-28T03:13:53.987Z,0.30
2022-09-28T03:18:46.577Z,0.40
2022-09-28T03:23:38.469Z,0.47
2022-09-28T03:28:30.236Z,0.35
2022-09-28T03:33:22.544Z,0.30
2022-09-28T03:38:14.709Z,0.38
2022-09-28T03:43:06.466Z,0.55
2022-09-28T03:47:58.122Z,0.30
2022-09-28T03:52:49.766Z,0.30
2022-09-28T03:57:41.482Z,0.32
2022-09-28T04:02:34.862Z,0.30
2022-09-28T04:07:30.757Z,0.20
2022-09-28T04:12:22.789Z,0.30
2022-09-28T04:17:14.503Z,0.40
2022-09-28T04:22:06.134Z,0.30
2022-09-28T04:27:17.748Z,0.30
2022-09-28T04:32:10.425Z,0.20
2022-09-28T04:37:02.049Z,0.20
2022-09-28T04:41:53.688Z,0.60
2022-09-28T04:46:45.378Z,0.38
2022-09-28T04:51:37.049Z,0.22
2022-09-28T04:56:28.705Z,0.30
2022-09-28T05:01:23.860Z,0.30
2022-09-28T05:06:16.145Z,0.20
2022-09-28T05:11:11.079Z,0.30
2022-09-28T05:16:05.423Z,0.20
2022-09-28T05:20:57.465Z,0.25
2022-09-28T05:25:49.158Z,0.20
2022-09-28T05:30:40.758Z,0.28
2022-09-28T05:35:32.559Z,0.40
2022-09-28T05:40:24.371Z,0.30
2022-09-28T05:45:16.071Z,0.30
2022-09-28T05:50:11.697Z,0.22
2022-09-28T05:55:03.799Z,0.40
2022-09-28T05:59:55.501Z,0.10
2022-09-28T06:04:49.509Z,0.30
2022-09-28T06:09:41.271Z,0.10
2022-09-28T06:14:32.891Z,0.20
2022-09-28T06:19:24.607Z,0.30
2022-09-28T06:24:16.305Z,0.20
2022-09-28T06:29:08.074Z,0.20
2022-09-28T06:34:02.087Z,0.40
2022-09-28T06:38:53.729Z,0.20
2022-09-28T06:43:46.480Z,0.30
2022-09-28T06:48:38.178Z,0.70
2022-09-28T06:53:29.836Z,0.40
2022-09-28T06:58:23.063Z,0.40
2022-09-28T07:03:25.639Z,0.77
2022-09-28T07:08:18.217Z,0.40
2022-09-28T07:13:25.872Z,0.40
2022-09-28T07:18:23.038Z,0.50
2022-09-28T07:28:12.198Z,0.40
2022-09-28T07:33:06.245Z,0.40
2022-09-28T07:38:16.108Z,0.30
2022-09-28T07:43:07.854Z,0.20
2022-09-28T07:47:59.718Z,0.20
2022-09-28T07:52:51.429Z,0.30
2022-09-28T07:57:44.502Z,0.30
2022-09-28T08:02:37.620Z,0.40
2022-09-28T08:07:29.442Z,0.30
2022-09-28T08:12:21.406Z,0.30
2022-09-28T08:17:13.196Z,0.40
2022-09-28T08:22:05.109Z,0.20
2022-09-28T08:26:57.136Z,0.25
2022-09-28T08:31:48.813Z,0.10
2022-09-28T08:36:40.429Z,0.13
2022-09-28T08:41:49.584Z,0.13
2022-09-28T08:46:47.800Z,0.20
2022-09-28T08:51:44.865Z,0.20
2022-09-28T08:57:00.033Z,0.17
2022-09-28T09:02:04.255Z,0.20
2022-09-28T09:07:18.074Z,0.20
2022-09-28T09:12:34.959Z,0.15
2022-09-28T09:18:01.981Z,0.10
2022-09-28T09:22:53.564Z,0.10
2022-09-28T09:28:03.204Z,0.20
2022-09-28T09:33:04.835Z,0.10
2022-09-28T09:38:19.470Z,0.20
2022-09-28T09:43:47.269Z,0.20
2022-09-28T09:48:55.344Z,0.20
2022-09-28T09:54:00.173Z,0.10
2022-09-28T09:58:57.518Z,0.10
2022-09-28T10:08:46.212Z,0.20
2022-09-28T10:13:38.405Z,0.30
2022-09-28T10:18:30.067Z,0.20
2022-09-28T10:23:26.858Z,0.10
2022-09-28T10:28:51.442Z,0.45
2022-09-28T10:33:43.114Z,0.25
2022-09-28T10:38:35.370Z,0.20
2022-09-28T10:43:38.612Z,0.30
2022-09-28T10:48:39.404Z,0.20
2022-09-28T10:53:31.873Z,0.30
2022-09-28T10:58:36.135Z,0.20
2022-09-28T11:03:29.782Z,0.17
2022-09-28T11:08:27.905Z,0.20
2022-09-28T11:13:19.652Z,0.20
2022-09-28T11:18:31.400Z,0.20
2022-09-28T11:23:31.849Z,0.30
2022-09-28T11:28:31.486Z,0.30
2022-09-28T11:33:40.000Z,0.30
2022-09-28T11:38:34.124Z,0.20
2022-09-28T11:43:41.171Z,0.30
2022-09-28T11:48:47.596Z,0.30
2022-09-28T11:53:45.303Z,0.20
2022-09-28T11:59:00.718Z,0.38
2022-09-28T12:04:01.821Z,0.20
2022-09-28T12:09:00.858Z,0.20
2022-09-28T12:13:54.550Z,0.20
2022-09-28T12:18:55.025Z,0.20
2022-09-28T12:23:48.786Z,0.20
2022-09-28T12:28:47.794Z,0.20
2022-09-28T12:33:48.055Z,0.17
2022-09-28T12:39:21.748Z,0.08
2022-09-28T12:45:13.493Z,0.10
2022-09-28T12:50:39.521Z,0.10
2022-09-28T12:55:44.410Z,0.10
2022-09-28T13:01:03.817Z,0.10
2022-09-28T13:06:26.873Z,0.10
2022-09-28T13:11:38.336Z,0.00
2022-09-28T13:16:49.501Z,0.00
2022-09-28T13:21:44.540Z,0.10
2022-09-28T13:26:44.913Z,0.00
2022-09-28T13:31:45.846Z,0.00
2022-09-28T13:36:39.123Z,0.00
2022-09-28T13:41:40.445Z,0.00
2022-09-28T13:47:20.733Z,0.00
2022-09-28T13:52:31.072Z,0.10
2022-09-28T13:57:44.186Z,0.08
2022-09-28T14:02:42.380Z,0.00
2022-09-28T14:07:34.036Z,0.00
2022-09-28T14:12:34.870Z,0.03
2022-09-28T14:17:29.396Z,0.00
2022-09-28T14:22:36.251Z,0.00
2022-09-28T14:27:46.250Z,0.00
2022-09-28T14:32:40.248Z,0.40
2022-09-28T14:37:58.121Z,2.75
2022-09-28T14:43:26.981Z,2.35
2022-09-28T14:48:21.002Z,0.30
2022-09-28T14:53:19.619Z,0.10
2022-09-28T14:58:19.573Z,0.10
2022-09-28T15:03:12.985Z,0.00
2022-09-28T15:08:05.445Z,0.00
2022-09-28T15:13:01.325Z,0.00
2022-09-28T15:18:16.677Z,0.10
2022-09-28T15:23:28.137Z,0.20
2022-09-28T15:28:22.266Z,0.10
2022-09-28T15:33:52.775Z,0.10
2022-09-28T15:39:06.622Z,0.00
2022-09-28T15:44:22.290Z,0.10
2022-09-28T15:49:26.085Z,0.00
2022-09-28T15:54:23.880Z,0.00
2022-09-28T15:59:15.446Z,0.00
2022-09-28T16:04:54.158Z,0.10
2022-09-28T16:10:11.943Z,0.10
2022-09-28T16:15:14.898Z,0.10
2022-09-28T16:20:30.034Z,0.00
2022-09-28T16:25:25.647Z,0.15
2022-09-28T16:30:27.525Z,0.20
2022-09-28T16:35:29.983Z,0.10
2022-09-28T16:40:21.887Z,0.10
2022-09-28T16:45:19.880Z,0.10
2022-09-28T16:55:39.648Z,0.10
2022-09-28T17:00:29.712Z,0.10
2022-09-28T17:05:21.646Z,0.00
2022-09-28T17:10:28.989Z,0.20
2022-09-28T17:15:20.614Z,0.10
2022-09-28T17:20:32.175Z,0.10
2022-09-28T17:25:25.995Z,0.10
2022-09-28T17:30:20.250Z,0.55
2022-09-28T17:35:24.700Z,0.60
2022-09-28T17:40:28.378Z,0.30
2022-09-28T17:45:20.145Z,0.10
2022-09-28T17:50:22.009Z,0.10
2022-09-28T17:55:13.955Z,0.10
2022-09-28T18:00:06.043Z,0.10
2022-09-28T18:04:57.952Z,0.10
2022-09-28T18:09:56.739Z,0.13
2022-09-28T18:14:48.352Z,0.10
2022-09-28T18:19:40.186Z,0.10
2022-09-28T18:24:32.606Z,0.30
2022-09-28T18:29:24.467Z,0.20
2022-09-28T18:34:16.371Z,0.30
2022-09-28T18:39:08.087Z,0.20
2022-09-28T18:44:02.455Z,0.20
2022-09-28T18:48:57.311Z,0.20
2022-09-28T18:53:49.224Z,0.30
2022-09-28T18:58:42.306Z,0.40
2022-09-28T19:03:34.312Z,0.60
2022-09-28T19:08:27.763Z,0.50
2022-09-28T19:13:19.595Z,0.60
2022-09-28T19:18:11.343Z,0.68
2022-09-28T19:23:04.086Z,0.57
2022-09-28T19:27:55.705Z,0.50
2022-09-28T19:32:47.435Z,0.70
2022-09-28T19:37:39.411Z,0.55
2022-09-28T19:42:31.064Z,2.25
2022-09-28T19:47:23.216Z,5.28
2022-09-28T19:52:17.799Z,3.47
2022-09-28T19:57:11.192Z,7.05
2022-09-28T20:02:03.469Z,2.88
2022-09-28T20:06:55.221Z,2.50
2022-09-28T20:11:47.031Z,3.20
2022-09-28T20:16:39.520Z,1.73
2022-09-28T20:21:31.375Z,3.50
2022-09-28T20:26:24.443Z,1.55
2022-09-28T20:31:20.198Z,1.95
2022-09-28T20:36:14.318Z,1.13
2022-09-28T20:41:18.010Z,1.95
2022-09-28T20:46:13.533Z,1.15
2022-09-28T20:51:17.380Z,1.27
2022-09-28T20:56:21.088Z,1.95
2022-09-28T21:01:22.207Z,0.77
2022-09-28T21:06:15.274Z,0.40
2022-09-28T21:11:07.506Z,0.28
2022-09-28T21:16:03.725Z,0.30
2022-09-28T21:20:55.471Z,0.80
2022-09-28T21:25:47.116Z,0.30
2022-09-28T21:30:39.748Z,0.20
2022-09-28T21:35:35.296Z,0.30
2022-09-28T21:40:27.425Z,1.17
2022-09-28T21:45:19.412Z,1.20
2022-09-28T21:50:11.267Z,1.98
2022-09-28T21:55:03.564Z,0.32
2022-09-28T21:59:55.278Z,0.50
2022-09-28T22:04:46.982Z,0.40
2022-09-28T22:09:38.770Z,0.20
2022-09-28T22:14:30.433Z,0.30
2022-09-28T22:19:22.149Z,0.10
2022-09-28T22:24:13.808Z,0.30
2022-09-28T22:29:08.600Z,0.20
2022-09-28T22:34:00.435Z,0.20
2022-09-28T22:38:52.749Z,0.20
2022-09-28T22:43:44.365Z,0.30
2022-09-28T22:48:36.273Z,0.20
2022-09-28T22:53:31.408Z,0.30
2022-09-28T22:58:23.935Z,0.30
2022-09-28T23:03:16.514Z,0.20
2022-09-28T23:08:08.244Z,0.20
2022-09-28T23:12:59.844Z,0.20
2022-09-28T23:17:52.783Z,0.28
2022-09-28T23:22:48.547Z,0.30
2022-09-28T23:27:40.532Z,0.20
2022-09-28T23:32:32.297Z,0.20
2022-09-28T23:37:24.004Z,0.20
2022-09-28T23:42:15.624Z,0.10
2022-09-28T23:47:07.514Z,0.10
2022-09-28T23:51:59.153Z,0.03
2022-09-28T23:56:50.810Z,0.20
